sensor_id;sensor_type;location;lat;lon;timestamp;temperature;humidity
45339;DHT22;31071;51.478;5.710;2022-07-06T00:01:40;12.80;99.90
45339;DHT22;31071;51.478;5.710;2022-07-06T00:04:06;12.90;99.90
45339;DHT22;31071;51.478;5.710;2022-07-06T00:06:32;12.90;99.90
45339;DHT22;31071;51.478;5.710;2022-07-06T00:08:58;12.80;99.90
45339;DHT22;31071;51.478;5.710;2022-07-06T00:11:24;12.70;99.90
45339;DHT22;31071;51.478;5.710;2022-07-06T00:13:53;12.70;99.90
45339;DHT22;31071;51.478;5.710;2022-07-06T00:16:20;12.60;99.90
45339;DHT22;31071;51.478;5.710;2022-07-06T00:18:45;12.40;99.90
45339;DHT22;31071;51.478;5.710;2022-07-06T00:21:11;12.30;99.90
45339;DHT22;31071;51.478;5.710;2022-07-06T00:23:37;12.40;99.90
45339;DHT22;31071;51.478;5.710;2022-07-06T00:26:02;12.40;99.90
45339;DHT22;31071;51.478;5.710;2022-07-06T00:28:28;12.50;99.90
45339;DHT22;31071;51.478;5.710;2022-07-06T00:30:53;12.50;99.90
45339;DHT22;31071;51.478;5.710;2022-07-06T00:33:19;12.50;99.90
45339;DHT22;31071;51.478;5.710;2022-07-06T00:35:45;12.50;99.90
45339;DHT22;31071;51.478;5.710;2022-07-06T00:38:10;12.40;99.90
45339;DHT22;31071;51.478;5.710;2022-07-06T00:40:36;12.50;99.90
45339;DHT22;31071;51.478;5.710;2022-07-06T00:43:01;12.40;99.90
45339;DHT22;31071;51.478;5.710;2022-07-06T00:45:27;12.40;99.90
45339;DHT22;31071;51.478;5.710;2022-07-06T00:47:53;12.30;99.90
45339;DHT22;31071;51.478;5.710;2022-07-06T00:50:19;12.50;99.90
45339;DHT22;31071;51.478;5.710;2022-07-06T00:52:50;12.50;99.90
45339;DHT22;31071;51.478;5.710;2022-07-06T00:55:18;12.50;99.90
45339;DHT22;31071;51.478;5.710;2022-07-06T00:57:44;12.50;99.90
45339;DHT22;31071;51.478;5.710;2022-07-06T01:00:12;12.60;99.90
45339;DHT22;31071;51.478;5.710;2022-07-06T01:02:39;12.40;99.90
45339;DHT22;31071;51.478;5.710;2022-07-06T01:05:05;12.40;99.90
45339;DHT22;31071;51.478;5.710;2022-07-06T01:07:31;12.30;99.90
45339;DHT22;31071;51.478;5.710;2022-07-06T01:09:57;12.20;99.90
45339;DHT22;31071;51.478;5.710;2022-07-06T01:12:23;12.20;99.90
45339;DHT22;31071;51.478;5.710;2022-07-06T01:14:50;12.20;99.90
45339;DHT22;31071;51.478;5.710;2022-07-06T01:17:19;12.20;99.90
45339;DHT22;31071;51.478;5.710;2022-07-06T01:19:45;12.30;99.90
45339;DHT22;31071;51.478;5.710;2022-07-06T01:22:11;12.20;99.90
45339;DHT22;31071;51.478;5.710;2022-07-06T01:24:42;12.30;99.90
45339;DHT22;31071;51.478;5.710;2022-07-06T01:27:08;12.30;99.90
45339;DHT22;31071;51.478;5.710;2022-07-06T01:29:34;12.30;99.90
45339;DHT22;31071;51.478;5.710;2022-07-06T01:32:00;12.40;99.90
45339;DHT22;31071;51.478;5.710;2022-07-06T01:34:26;12.20;99.90
45339;DHT22;31071;51.478;5.710;2022-07-06T01:36:52;12.30;99.90
45339;DHT22;31071;51.478;5.710;2022-07-06T01:39:18;12.30;99.90
45339;DHT22;31071;51.478;5.710;2022-07-06T01:41:44;12.20;99.90
45339;DHT22;31071;51.478;5.710;2022-07-06T01:44:24;12.30;99.90
45339;DHT22;31071;51.478;5.710;2022-07-06T01:46:49;12.30;99.90
45339;DHT22;31071;51.478;5.710;2022-07-06T01:49:15;12.30;99.90
45339;DHT22;31071;51.478;5.710;2022-07-06T01:51:40;12.10;99.90
45339;DHT22;31071;51.478;5.710;2022-07-06T01:54:06;12.00;99.90
45339;DHT22;31071;51.478;5.710;2022-07-06T01:56:31;12.00;99.90
45339;DHT22;31071;51.478;5.710;2022-07-06T01:58:57;11.90;99.90
45339;DHT22;31071;51.478;5.710;2022-07-06T02:01:22;11.80;99.90
45339;DHT22;31071;51.478;5.710;2022-07-06T02:03:49;11.70;99.90
45339;DHT22;31071;51.478;5.710;2022-07-06T02:06:14;11.70;99.90
45339;DHT22;31071;51.478;5.710;2022-07-06T02:08:41;11.70;99.90
45339;DHT22;31071;51.478;5.710;2022-07-06T02:11:08;11.70;99.90
45339;DHT22;31071;51.478;5.710;2022-07-06T02:13:35;11.70;99.90
45339;DHT22;31071;51.478;5.710;2022-07-06T02:16:01;11.90;99.90
45339;DHT22;31071;51.478;5.710;2022-07-06T02:18:27;11.90;99.90
45339;DHT22;31071;51.478;5.710;2022-07-06T02:20:53;12.00;99.90
45339;DHT22;31071;51.478;5.710;2022-07-06T02:23:18;12.00;99.90
45339;DHT22;31071;51.478;5.710;2022-07-06T02:25:44;12.00;99.90
45339;DHT22;31071;51.478;5.710;2022-07-06T02:28:10;12.00;99.90
45339;DHT22;31071;51.478;5.710;2022-07-06T02:30:35;11.90;99.90
45339;DHT22;31071;51.478;5.710;2022-07-06T02:33:01;11.90;99.90
45339;DHT22;31071;51.478;5.710;2022-07-06T02:35:27;11.70;99.90
45339;DHT22;31071;51.478;5.710;2022-07-06T02:37:53;11.70;99.90
45339;DHT22;31071;51.478;5.710;2022-07-06T02:40:18;11.70;99.90
45339;DHT22;31071;51.478;5.710;2022-07-06T02:42:44;11.70;99.90
45339;DHT22;31071;51.478;5.710;2022-07-06T02:45:10;11.70;99.90
45339;DHT22;31071;51.478;5.710;2022-07-06T02:47:35;11.70;99.90
45339;DHT22;31071;51.478;5.710;2022-07-06T02:50:02;11.60;99.90
45339;DHT22;31071;51.478;5.710;2022-07-06T02:52:28;11.50;99.90
45339;DHT22;31071;51.478;5.710;2022-07-06T02:54:54;11.40;99.90
45339;DHT22;31071;51.478;5.710;2022-07-06T02:57:20;11.20;99.90
45339;DHT22;31071;51.478;5.710;2022-07-06T02:59:45;11.10;99.90
45339;DHT22;31071;51.478;5.710;2022-07-06T03:02:11;11.10;99.90
45339;DHT22;31071;51.478;5.710;2022-07-06T03:04:39;11.10;99.90
45339;DHT22;31071;51.478;5.710;2022-07-06T03:07:04;11.10;99.90
45339;DHT22;31071;51.478;5.710;2022-07-06T03:09:30;11.10;99.90
45339;DHT22;31071;51.478;5.710;2022-07-06T03:11:55;11.10;99.90
45339;DHT22;31071;51.478;5.710;2022-07-06T03:14:23;11.10;99.90
45339;DHT22;31071;51.478;5.710;2022-07-06T03:16:50;11.10;99.90
45339;DHT22;31071;51.478;5.710;2022-07-06T03:19:16;11.00;99.90
45339;DHT22;31071;51.478;5.710;2022-07-06T03:21:42;10.80;99.90
45339;DHT22;31071;51.478;5.710;2022-07-06T03:24:07;10.90;99.90
45339;DHT22;31071;51.478;5.710;2022-07-06T03:26:33;10.90;99.90
45339;DHT22;31071;51.478;5.710;2022-07-06T03:28:58;10.90;99.90
45339;DHT22;31071;51.478;5.710;2022-07-06T03:31:24;11.00;99.90
45339;DHT22;31071;51.478;5.710;2022-07-06T03:33:57;10.90;99.90
45339;DHT22;31071;51.478;5.710;2022-07-06T03:36:23;10.90;99.90
45339;DHT22;31071;51.478;5.710;2022-07-06T03:38:48;10.90;99.90
45339;DHT22;31071;51.478;5.710;2022-07-06T03:41:15;11.00;99.90
45339;DHT22;31071;51.478;5.710;2022-07-06T03:43:40;11.10;99.90
45339;DHT22;31071;51.478;5.710;2022-07-06T03:46:06;11.10;99.90
45339;DHT22;31071;51.478;5.710;2022-07-06T03:48:32;11.10;99.90
45339;DHT22;31071;51.478;5.710;2022-07-06T03:50:57;11.10;99.90
45339;DHT22;31071;51.478;5.710;2022-07-06T03:53:23;11.10;99.90
45339;DHT22;31071;51.478;5.710;2022-07-06T03:55:48;11.20;99.90
45339;DHT22;31071;51.478;5.710;2022-07-06T03:58:32;11.20;99.90
45339;DHT22;31071;51.478;5.710;2022-07-06T04:00:58;11.10;99.90
45339;DHT22;31071;51.478;5.710;2022-07-06T04:03:24;11.10;99.90
45339;DHT22;31071;51.478;5.710;2022-07-06T04:05:49;11.10;99.90
45339;DHT22;31071;51.478;5.710;2022-07-06T04:08:15;11.10;99.90
45339;DHT22;31071;51.478;5.710;2022-07-06T04:10:40;11.30;99.90
45339;DHT22;31071;51.478;5.710;2022-07-06T04:13:09;11.30;99.90
45339;DHT22;31071;51.478;5.710;2022-07-06T04:15:34;11.30;99.90
45339;DHT22;31071;51.478;5.710;2022-07-06T04:18:00;11.40;99.90
45339;DHT22;31071;51.478;5.710;2022-07-06T04:20:25;11.50;99.90
45339;DHT22;31071;51.478;5.710;2022-07-06T04:22:52;11.60;99.90
45339;DHT22;31071;51.478;5.710;2022-07-06T04:25:18;11.70;99.90
45339;DHT22;31071;51.478;5.710;2022-07-06T04:27:44;11.70;99.90
45339;DHT22;31071;51.478;5.710;2022-07-06T04:30:10;11.70;99.90
45339;DHT22;31071;51.478;5.710;2022-07-06T04:32:36;11.80;99.90
45339;DHT22;31071;51.478;5.710;2022-07-06T04:35:02;11.80;99.90
45339;DHT22;31071;51.478;5.710;2022-07-06T04:37:28;11.80;99.90
45339;DHT22;31071;51.478;5.710;2022-07-06T04:39:54;11.80;99.90
45339;DHT22;31071;51.478;5.710;2022-07-06T04:42:19;11.80;99.90
45339;DHT22;31071;51.478;5.710;2022-07-06T04:44:45;11.80;99.90
45339;DHT22;31071;51.478;5.710;2022-07-06T04:47:11;11.90;99.90
45339;DHT22;31071;51.478;5.710;2022-07-06T04:49:37;11.90;99.90
45339;DHT22;31071;51.478;5.710;2022-07-06T04:52:03;11.90;99.90
45339;DHT22;31071;51.478;5.710;2022-07-06T04:54:28;12.00;99.90
45339;DHT22;31071;51.478;5.710;2022-07-06T04:56:54;12.00;99.90
45339;DHT22;31071;51.478;5.710;2022-07-06T04:59:19;12.00;99.90
45339;DHT22;31071;51.478;5.710;2022-07-06T05:01:45;12.00;99.90
45339;DHT22;31071;51.478;5.710;2022-07-06T05:04:10;12.10;99.90
45339;DHT22;31071;51.478;5.710;2022-07-06T05:06:36;12.10;99.90
45339;DHT22;31071;51.478;5.710;2022-07-06T05:09:02;12.10;99.90
45339;DHT22;31071;51.478;5.710;2022-07-06T05:11:28;12.10;99.90
45339;DHT22;31071;51.478;5.710;2022-07-06T05:13:55;12.20;99.90
45339;DHT22;31071;51.478;5.710;2022-07-06T05:16:21;12.20;99.90
45339;DHT22;31071;51.478;5.710;2022-07-06T05:18:47;12.30;99.90
45339;DHT22;31071;51.478;5.710;2022-07-06T05:21:13;12.30;99.90
45339;DHT22;31071;51.478;5.710;2022-07-06T05:23:39;12.40;99.90
45339;DHT22;31071;51.478;5.710;2022-07-06T05:26:04;12.40;99.90
45339;DHT22;31071;51.478;5.710;2022-07-06T05:28:30;12.30;99.90
45339;DHT22;31071;51.478;5.710;2022-07-06T05:30:55;12.40;99.90
45339;DHT22;31071;51.478;5.710;2022-07-06T05:33:24;12.50;99.90
45339;DHT22;31071;51.478;5.710;2022-07-06T05:35:49;12.50;99.90
45339;DHT22;31071;51.478;5.710;2022-07-06T05:38:15;12.60;99.90
45339;DHT22;31071;51.478;5.710;2022-07-06T05:40:41;12.70;99.90
45339;DHT22;31071;51.478;5.710;2022-07-06T05:43:06;12.80;99.90
45339;DHT22;31071;51.478;5.710;2022-07-06T05:45:32;13.00;99.90
45339;DHT22;31071;51.478;5.710;2022-07-06T05:47:58;13.30;99.90
45339;DHT22;31071;51.478;5.710;2022-07-06T05:50:42;13.50;99.90
45339;DHT22;31071;51.478;5.710;2022-07-06T05:53:07;13.70;99.90
45339;DHT22;31071;51.478;5.710;2022-07-06T05:55:33;13.90;99.90
45339;DHT22;31071;51.478;5.710;2022-07-06T05:57:59;14.00;99.90
45339;DHT22;31071;51.478;5.710;2022-07-06T06:00:26;14.00;99.90
45339;DHT22;31071;51.478;5.710;2022-07-06T06:02:52;14.00;99.90
45339;DHT22;31071;51.478;5.710;2022-07-06T06:05:19;14.10;99.90
45339;DHT22;31071;51.478;5.710;2022-07-06T06:07:46;14.10;99.90
45339;DHT22;31071;51.478;5.710;2022-07-06T06:10:14;14.10;99.90
45339;DHT22;31071;51.478;5.710;2022-07-06T06:12:40;14.20;99.90
45339;DHT22;31071;51.478;5.710;2022-07-06T06:15:08;14.30;99.90
45339;DHT22;31071;51.478;5.710;2022-07-06T06:17:35;14.50;99.90
45339;DHT22;31071;51.478;5.710;2022-07-06T06:20:01;14.80;99.90
45339;DHT22;31071;51.478;5.710;2022-07-06T06:22:27;15.00;99.90
45339;DHT22;31071;51.478;5.710;2022-07-06T06:24:53;15.10;99.90
45339;DHT22;31071;51.478;5.710;2022-07-06T06:27:19;15.10;99.90
45339;DHT22;31071;51.478;5.710;2022-07-06T06:29:45;15.10;99.90
45339;DHT22;31071;51.478;5.710;2022-07-06T06:32:11;15.20;99.90
45339;DHT22;31071;51.478;5.710;2022-07-06T06:34:43;15.30;99.90
45339;DHT22;31071;51.478;5.710;2022-07-06T06:37:09;15.30;99.90
45339;DHT22;31071;51.478;5.710;2022-07-06T06:39:34;15.30;99.90
45339;DHT22;31071;51.478;5.710;2022-07-06T06:42:00;15.40;99.90
45339;DHT22;31071;51.478;5.710;2022-07-06T06:44:26;15.60;99.90
45339;DHT22;31071;51.478;5.710;2022-07-06T06:46:52;15.70;99.90
45339;DHT22;31071;51.478;5.710;2022-07-06T06:49:18;15.70;99.90
45339;DHT22;31071;51.478;5.710;2022-07-06T06:51:44;15.70;99.90
45339;DHT22;31071;51.478;5.710;2022-07-06T06:54:09;15.80;99.90
45339;DHT22;31071;51.478;5.710;2022-07-06T06:56:35;15.80;99.90
45339;DHT22;31071;51.478;5.710;2022-07-06T06:59:00;15.90;99.90
45339;DHT22;31071;51.478;5.710;2022-07-06T07:01:27;16.00;99.90
45339;DHT22;31071;51.478;5.710;2022-07-06T07:03:53;16.10;99.90
45339;DHT22;31071;51.478;5.710;2022-07-06T07:06:20;16.20;99.90
45339;DHT22;31071;51.478;5.710;2022-07-06T07:08:46;16.30;99.90
45339;DHT22;31071;51.478;5.710;2022-07-06T07:11:12;16.30;99.90
45339;DHT22;31071;51.478;5.710;2022-07-06T07:13:37;16.30;99.90
45339;DHT22;31071;51.478;5.710;2022-07-06T07:16:03;16.40;99.90
45339;DHT22;31071;51.478;5.710;2022-07-06T07:18:28;16.50;99.90
45339;DHT22;31071;51.478;5.710;2022-07-06T07:20:54;16.70;99.90
45339;DHT22;31071;51.478;5.710;2022-07-06T07:23:19;16.90;99.90
45339;DHT22;31071;51.478;5.710;2022-07-06T07:25:45;17.10;98.90
45339;DHT22;31071;51.478;5.710;2022-07-06T07:28:11;17.20;99.10
45339;DHT22;31071;51.478;5.710;2022-07-06T07:30:37;17.30;98.10
45339;DHT22;31071;51.478;5.710;2022-07-06T07:33:02;17.20;97.70
45339;DHT22;31071;51.478;5.710;2022-07-06T07:35:28;17.30;97.70
45339;DHT22;31071;51.478;5.710;2022-07-06T07:37:53;17.40;97.80
45339;DHT22;31071;51.478;5.710;2022-07-06T07:40:19;17.40;97.70
45339;DHT22;31071;51.478;5.710;2022-07-06T07:42:45;17.50;97.70
45339;DHT22;31071;51.478;5.710;2022-07-06T07:45:11;17.50;97.70
45339;DHT22;31071;51.478;5.710;2022-07-06T07:47:38;17.60;97.50
45339;DHT22;31071;51.478;5.710;2022-07-06T07:50:04;17.70;97.50
45339;DHT22;31071;51.478;5.710;2022-07-06T07:52:30;17.70;97.30
45339;DHT22;31071;51.478;5.710;2022-07-06T07:54:56;17.80;97.20
45339;DHT22;31071;51.478;5.710;2022-07-06T07:57:21;18.00;96.50
45339;DHT22;31071;51.478;5.710;2022-07-06T07:59:47;18.00;96.40
45339;DHT22;31071;51.478;5.710;2022-07-06T08:02:13;18.00;95.70
45339;DHT22;31071;51.478;5.710;2022-07-06T08:04:39;17.90;95.30
45339;DHT22;31071;51.478;5.710;2022-07-06T08:07:05;17.80;94.70
45339;DHT22;31071;51.478;5.710;2022-07-06T08:09:31;17.90;94.50
45339;DHT22;31071;51.478;5.710;2022-07-06T08:11:57;17.80;94.90
45339;DHT22;31071;51.478;5.710;2022-07-06T08:14:23;17.90;94.70
45339;DHT22;31071;51.478;5.710;2022-07-06T08:16:49;18.00;95.10
45339;DHT22;31071;51.478;5.710;2022-07-06T08:19:14;18.40;94.80
45339;DHT22;31071;51.478;5.710;2022-07-06T08:21:41;18.80;94.00
45339;DHT22;31071;51.478;5.710;2022-07-06T08:24:07;19.20;93.80
45339;DHT22;31071;51.478;5.710;2022-07-06T08:26:32;19.40;93.20
45339;DHT22;31071;51.478;5.710;2022-07-06T08:28:58;19.70;93.10
45339;DHT22;31071;51.478;5.710;2022-07-06T08:31:25;19.70;91.10
45339;DHT22;31071;51.478;5.710;2022-07-06T08:34:10;19.90;91.00
45339;DHT22;31071;51.478;5.710;2022-07-06T08:36:36;19.70;90.70
45339;DHT22;31071;51.478;5.710;2022-07-06T08:39:01;19.20;91.30
45339;DHT22;31071;51.478;5.710;2022-07-06T08:41:29;19.10;92.20
45339;DHT22;31071;51.478;5.710;2022-07-06T08:43:55;18.70;93.00
45339;DHT22;31071;51.478;5.710;2022-07-06T08:46:21;18.40;92.40
45339;DHT22;31071;51.478;5.710;2022-07-06T08:48:47;18.50;93.10
45339;DHT22;31071;51.478;5.710;2022-07-06T08:51:13;18.50;93.30
45339;DHT22;31071;51.478;5.710;2022-07-06T08:53:45;18.90;92.70
45339;DHT22;31071;51.478;5.710;2022-07-06T08:56:14;19.10;91.50
45339;DHT22;31071;51.478;5.710;2022-07-06T08:58:39;19.30;91.40
45339;DHT22;31071;51.478;5.710;2022-07-06T09:01:12;19.30;90.60
45339;DHT22;31071;51.478;5.710;2022-07-06T09:03:41;19.40;90.90
45339;DHT22;31071;51.478;5.710;2022-07-06T09:06:07;19.40;89.50
45339;DHT22;31071;51.478;5.710;2022-07-06T09:08:33;19.10;90.40
45339;DHT22;31071;51.478;5.710;2022-07-06T09:11:02;19.40;90.30
45339;DHT22;31071;51.478;5.710;2022-07-06T09:13:28;19.70;90.00
45339;DHT22;31071;51.478;5.710;2022-07-06T09:15:54;19.90;89.60
45339;DHT22;31071;51.478;5.710;2022-07-06T09:18:21;19.90;90.10
45339;DHT22;31071;51.478;5.710;2022-07-06T09:20:47;20.20;89.10
45339;DHT22;31071;51.478;5.710;2022-07-06T09:23:15;20.30;86.80
45339;DHT22;31071;51.478;5.710;2022-07-06T09:25:41;20.50;84.60
45339;DHT22;31071;51.478;5.710;2022-07-06T09:28:07;20.40;83.00
45339;DHT22;31071;51.478;5.710;2022-07-06T09:30:32;20.40;86.30
45339;DHT22;31071;51.478;5.710;2022-07-06T09:32:58;20.30;85.30
45339;DHT22;31071;51.478;5.710;2022-07-06T09:35:26;20.20;84.00
45339;DHT22;31071;51.478;5.710;2022-07-06T09:38:08;20.00;82.90
45339;DHT22;31071;51.478;5.710;2022-07-06T09:40:39;19.90;83.30
45339;DHT22;31071;51.478;5.710;2022-07-06T09:43:15;20.00;83.40
45339;DHT22;31071;51.478;5.710;2022-07-06T09:45:44;20.10;82.80
45339;DHT22;31071;51.478;5.710;2022-07-06T09:48:14;20.40;81.30
45339;DHT22;31071;51.478;5.710;2022-07-06T09:50:46;20.50;80.70
45339;DHT22;31071;51.478;5.710;2022-07-06T09:53:13;20.80;80.80
45339;DHT22;31071;51.478;5.710;2022-07-06T09:55:44;21.20;81.60
45339;DHT22;31071;51.478;5.710;2022-07-06T09:58:10;21.30;76.70
45339;DHT22;31071;51.478;5.710;2022-07-06T10:00:35;20.90;78.60
45339;DHT22;31071;51.478;5.710;2022-07-06T10:03:01;20.70;79.20
45339;DHT22;31071;51.478;5.710;2022-07-06T10:05:27;20.80;77.30
45339;DHT22;31071;51.478;5.710;2022-07-06T10:07:59;21.10;73.90
45339;DHT22;31071;51.478;5.710;2022-07-06T10:10:27;21.10;74.80
45339;DHT22;31071;51.478;5.710;2022-07-06T10:12:55;21.10;76.20
45339;DHT22;31071;51.478;5.710;2022-07-06T10:15:23;20.90;76.40
45339;DHT22;31071;51.478;5.710;2022-07-06T10:17:50;20.90;80.40
45339;DHT22;31071;51.478;5.710;2022-07-06T10:20:20;20.70;78.30
45339;DHT22;31071;51.478;5.710;2022-07-06T10:22:50;20.70;78.70
45339;DHT22;31071;51.478;5.710;2022-07-06T10:25:19;20.70;80.00
45339;DHT22;31071;51.478;5.710;2022-07-06T10:27:46;20.70;79.40
45339;DHT22;31071;51.478;5.710;2022-07-06T10:30:12;20.70;77.90
45339;DHT22;31071;51.478;5.710;2022-07-06T10:32:39;20.70;72.80
45339;DHT22;31071;51.478;5.710;2022-07-06T10:35:06;20.60;77.20
45339;DHT22;31071;51.478;5.710;2022-07-06T10:37:33;20.80;74.20
45339;DHT22;31071;51.478;5.710;2022-07-06T10:39:59;21.00;73.40
45339;DHT22;31071;51.478;5.710;2022-07-06T10:42:49;21.10;74.20
45339;DHT22;31071;51.478;5.710;2022-07-06T10:50:42;20.90;75.00
45339;DHT22;31071;51.478;5.710;2022-07-06T10:53:16;20.80;75.00
45339;DHT22;31071;51.478;5.710;2022-07-06T10:55:47;20.60;76.20
45339;DHT22;31071;51.478;5.710;2022-07-06T10:58:14;20.80;75.20
45339;DHT22;31071;51.478;5.710;2022-07-06T11:00:53;20.80;73.60
45339;DHT22;31071;51.478;5.710;2022-07-06T11:03:43;20.90;73.50
45339;DHT22;31071;51.478;5.710;2022-07-06T11:06:17;21.30;72.20
45339;DHT22;31071;51.478;5.710;2022-07-06T11:08:51;21.50;71.70
45339;DHT22;31071;51.478;5.710;2022-07-06T11:14:11;21.50;71.40
45339;DHT22;31071;51.478;5.710;2022-07-06T11:24:43;21.70;69.70
45339;DHT22;31071;51.478;5.710;2022-07-06T11:27:09;21.60;69.90
45339;DHT22;31071;51.478;5.710;2022-07-06T11:29:35;21.90;69.00
45339;DHT22;31071;51.478;5.710;2022-07-06T11:32:06;22.10;67.10
45339;DHT22;31071;51.478;5.710;2022-07-06T11:34:36;21.90;70.20
45339;DHT22;31071;51.478;5.710;2022-07-06T11:37:04;21.90;70.20
45339;DHT22;31071;51.478;5.710;2022-07-06T11:39:32;21.80;68.70
45339;DHT22;31071;51.478;5.710;2022-07-06T11:41:59;21.60;68.00
45339;DHT22;31071;51.478;5.710;2022-07-06T11:44:28;21.70;68.70
45339;DHT22;31071;51.478;5.710;2022-07-06T11:46:53;21.70;69.10
45339;DHT22;31071;51.478;5.710;2022-07-06T11:49:22;21.50;67.30
45339;DHT22;31071;51.478;5.710;2022-07-06T11:51:48;21.60;70.60
45339;DHT22;31071;51.478;5.710;2022-07-06T11:54:16;21.60;71.10
45339;DHT22;31071;51.478;5.710;2022-07-06T11:56:46;22.30;68.40
45339;DHT22;31071;51.478;5.710;2022-07-06T11:59:12;23.30;65.00
45339;DHT22;31071;51.478;5.710;2022-07-06T12:01:40;24.30;61.20
45339;DHT22;31071;51.478;5.710;2022-07-06T12:04:09;25.50;57.60
45339;DHT22;31071;51.478;5.710;2022-07-06T12:06:35;26.20;54.80
45339;DHT22;31071;51.478;5.710;2022-07-06T12:09:01;27.00;53.80
45339;DHT22;31071;51.478;5.710;2022-07-06T12:11:36;27.60;51.30
45339;DHT22;31071;51.478;5.710;2022-07-06T12:14:19;28.00;49.60
45339;DHT22;31071;51.478;5.710;2022-07-06T12:16:49;27.70;48.50
45339;DHT22;31071;51.478;5.710;2022-07-06T12:19:15;27.70;47.00
45339;DHT22;31071;51.478;5.710;2022-07-06T12:21:45;27.70;47.20
45339;DHT22;31071;51.478;5.710;2022-07-06T12:24:33;27.70;46.10
45339;DHT22;31071;51.478;5.710;2022-07-06T12:27:19;27.20;46.70
45339;DHT22;31071;51.478;5.710;2022-07-06T12:29:47;26.50;48.10
45339;DHT22;31071;51.478;5.710;2022-07-06T12:32:17;27.00;46.90
45339;DHT22;31071;51.478;5.710;2022-07-06T12:34:44;27.30;46.10
45339;DHT22;31071;51.478;5.710;2022-07-06T12:37:10;27.70;45.90
45339;DHT22;31071;51.478;5.710;2022-07-06T12:39:46;28.40;44.00
45339;DHT22;31071;51.478;5.710;2022-07-06T12:42:16;28.00;44.40
45339;DHT22;31071;51.478;5.710;2022-07-06T12:44:46;28.30;43.40
45339;DHT22;31071;51.478;5.710;2022-07-06T12:47:12;28.00;43.10
45339;DHT22;31071;51.478;5.710;2022-07-06T12:49:39;26.40;45.50
45339;DHT22;31071;51.478;5.710;2022-07-06T12:52:11;25.60;47.50
45339;DHT22;31071;51.478;5.710;2022-07-06T12:54:49;26.50;46.00
45339;DHT22;31071;51.478;5.710;2022-07-06T12:57:21;27.20;44.30
45339;DHT22;31071;51.478;5.710;2022-07-06T13:02:26;28.60;42.90
45339;DHT22;31071;51.478;5.710;2022-07-06T13:07:22;27.00;43.00
45339;DHT22;31071;51.478;5.710;2022-07-06T13:09:48;24.80;49.00
45339;DHT22;31071;51.478;5.710;2022-07-06T13:12:14;25.30;47.20
45339;DHT22;31071;51.478;5.710;2022-07-06T13:14:40;27.00;44.30
45339;DHT22;31071;51.478;5.710;2022-07-06T13:17:06;27.40;44.10
45339;DHT22;31071;51.478;5.710;2022-07-06T13:19:32;28.40;42.80
45339;DHT22;31071;51.478;5.710;2022-07-06T13:21:58;28.60;41.30
45339;DHT22;31071;51.478;5.710;2022-07-06T13:24:23;28.00;42.90
45339;DHT22;31071;51.478;5.710;2022-07-06T13:26:49;27.80;42.20
45339;DHT22;31071;51.478;5.710;2022-07-06T13:29:15;27.70;42.80
45339;DHT22;31071;51.478;5.710;2022-07-06T13:31:40;27.60;43.10
45339;DHT22;31071;51.478;5.710;2022-07-06T13:34:07;27.00;43.80
45339;DHT22;31071;51.478;5.710;2022-07-06T13:36:34;27.30;43.30
45339;DHT22;31071;51.478;5.710;2022-07-06T13:39:00;27.90;42.20
45339;DHT22;31071;51.478;5.710;2022-07-06T13:41:25;28.50;41.20
45339;DHT22;31071;51.478;5.710;2022-07-06T13:43:51;29.10;41.10
45339;DHT22;31071;51.478;5.710;2022-07-06T13:46:16;29.00;41.20
45339;DHT22;31071;51.478;5.710;2022-07-06T13:48:42;28.30;41.10
45339;DHT22;31071;51.478;5.710;2022-07-06T13:51:08;27.00;44.20
45339;DHT22;31071;51.478;5.710;2022-07-06T13:53:34;25.30;45.80
45339;DHT22;31071;51.478;5.710;2022-07-06T13:56:00;24.80;46.00
45339;DHT22;31071;51.478;5.710;2022-07-06T13:58:25;24.80;46.30
45339;DHT22;31071;51.478;5.710;2022-07-06T14:00:51;24.90;46.30
45339;DHT22;31071;51.478;5.710;2022-07-06T14:03:16;25.70;46.00
45339;DHT22;31071;51.478;5.710;2022-07-06T14:05:42;25.80;45.40
45339;DHT22;31071;51.478;5.710;2022-07-06T14:08:08;25.80;45.80
45339;DHT22;31071;51.478;5.710;2022-07-06T14:10:34;26.20;46.00
45339;DHT22;31071;51.478;5.710;2022-07-06T14:12:59;26.50;44.70
45339;DHT22;31071;51.478;5.710;2022-07-06T14:15:25;25.70;45.80
45339;DHT22;31071;51.478;5.710;2022-07-06T14:17:50;24.90;46.90
45339;DHT22;31071;51.478;5.710;2022-07-06T14:20:16;24.50;47.70
45339;DHT22;31071;51.478;5.710;2022-07-06T14:22:43;24.40;48.20
45339;DHT22;31071;51.478;5.710;2022-07-06T14:25:09;24.80;47.80
45339;DHT22;31071;51.478;5.710;2022-07-06T14:27:35;25.00;46.80
45339;DHT22;31071;51.478;5.710;2022-07-06T14:30:01;25.20;47.50
45339;DHT22;31071;51.478;5.710;2022-07-06T14:32:28;25.50;47.20
45339;DHT22;31071;51.478;5.710;2022-07-06T14:34:55;25.40;47.10
45339;DHT22;31071;51.478;5.710;2022-07-06T14:37:21;25.00;47.50
45339;DHT22;31071;51.478;5.710;2022-07-06T14:39:47;24.90;48.10
45339;DHT22;31071;51.478;5.710;2022-07-06T14:42:14;24.80;47.60
45339;DHT22;31071;51.478;5.710;2022-07-06T14:44:46;24.60;47.70
45339;DHT22;31071;51.478;5.710;2022-07-06T14:47:11;24.80;48.10
45339;DHT22;31071;51.478;5.710;2022-07-06T14:49:37;24.80;48.10
45339;DHT22;31071;51.478;5.710;2022-07-06T14:52:03;25.10;47.50
45339;DHT22;31071;51.478;5.710;2022-07-06T14:54:31;24.90;47.30
45339;DHT22;31071;51.478;5.710;2022-07-06T14:56:56;24.60;48.70
45339;DHT22;31071;51.478;5.710;2022-07-06T14:59:22;24.30;50.20
45339;DHT22;31071;51.478;5.710;2022-07-06T15:01:48;23.90;50.70
45339;DHT22;31071;51.478;5.710;2022-07-06T15:04:13;24.30;49.40
45339;DHT22;31071;51.478;5.710;2022-07-06T15:06:39;24.40;49.00
45339;DHT22;31071;51.478;5.710;2022-07-06T15:09:04;24.70;49.30
45339;DHT22;31071;51.478;5.710;2022-07-06T15:11:31;24.70;48.50
45339;DHT22;31071;51.478;5.710;2022-07-06T15:13:57;24.40;49.20
45339;DHT22;31071;51.478;5.710;2022-07-06T15:16:22;24.10;49.20
45339;DHT22;31071;51.478;5.710;2022-07-06T15:18:49;23.90;49.50
45339;DHT22;31071;51.478;5.710;2022-07-06T15:21:15;23.90;49.40
45339;DHT22;31071;51.478;5.710;2022-07-06T15:23:40;23.90;49.40
45339;DHT22;31071;51.478;5.710;2022-07-06T15:26:07;24.00;49.80
45339;DHT22;31071;51.478;5.710;2022-07-06T15:28:33;23.90;49.80
45339;DHT22;31071;51.478;5.710;2022-07-06T15:30:58;23.90;50.50
45339;DHT22;31071;51.478;5.710;2022-07-06T15:33:24;24.00;50.20
45339;DHT22;31071;51.478;5.710;2022-07-06T15:35:50;23.70;51.00
45339;DHT22;31071;51.478;5.710;2022-07-06T15:38:16;23.70;51.60
45339;DHT22;31071;51.478;5.710;2022-07-06T15:40:41;23.80;51.80
45339;DHT22;31071;51.478;5.710;2022-07-06T15:43:10;23.70;51.30
45339;DHT22;31071;51.478;5.710;2022-07-06T15:45:36;23.70;51.60
45339;DHT22;31071;51.478;5.710;2022-07-06T15:48:03;23.80;51.60
45339;DHT22;31071;51.478;5.710;2022-07-06T15:50:29;23.80;51.70